Time;durP1;ratioP1;P1;durP2;ratioP2;P2;SDS_P1;SDS_P2;PMS_P1;PMS_P2;Temp;Humidity;BMP_temperature;BMP_pressure;BME280_temperature;BME280_humidity;BME280_pressure;Samples;Min_cycle;Max_cycle;Signal;HPM_P1;HPM_P2
2022/09/20 00:02:16;;;;;;;7.37;2.17;;;;;;;-145.18;100.00;46664.31;5010778;28;20111;-75
2022/09/20 00:04:41;;;;;;;10.80;2.57;;;;;;;-145.18;100.00;46664.31;5011397;28;20045;-75
2022/09/20 00:07:07;;;;;;;14.73;2.93;;;;;;;-145.18;100.00;46660.41;5011249;28;20037;-75
2022/09/20 00:09:32;;;;;;;11.13;2.80;;;;;;;-145.18;100.00;46662.34;5011134;28;20470;-76
2022/09/20 00:11:58;;;;;;;10.57;2.43;;;;;;;-145.18;100.00;46660.41;5010831;28;20368;-75
2022/09/20 00:14:24;;;;;;;6.77;2.27;;;;;;;-145.18;100.00;46662.34;5011416;28;20087;-76
2022/09/20 00:16:50;;;;;;;8.43;2.33;;;;;;;-145.18;100.00;46658.44;5010757;28;20483;-75
2022/09/20 00:19:20;;;;;;;11.57;3.53;;;;;;;-145.18;100.00;46654.53;5011368;28;20276;-76
2022/09/20 00:21:46;;;;;;;7.03;3.03;;;;;;;-145.18;100.00;46654.53;5010742;28;20434;-75
2022/09/20 00:24:12;;;;;;;11.57;3.27;;;;;;;-145.18;100.00;46660.41;5010982;28;20088;-75
2022/09/20 00:26:37;;;;;;;14.17;2.67;;;;;;;-145.18;100.00;46656.50;5010647;28;20060;-76
2022/09/20 00:29:04;;;;;;;10.00;2.37;;;;;;;-145.18;100.00;46658.44;4993853;28;20026;-75
2022/09/20 00:31:30;;;;;;;8.90;2.60;;;;;;;-145.18;100.00;46654.53;5010635;28;20030;-75
2022/09/20 00:36:42;;;;;;;12.32;2.25;;;;;;;-145.18;100.00;46660.41;5011010;28;20406;-75
2022/09/20 00:39:10;;;;;;;8.30;2.50;;;;;;;-145.18;100.00;46648.69;5010968;28;20037;-75
2022/09/20 00:41:36;;;;;;;9.80;2.50;;;;;;;-145.18;100.00;46650.63;5010640;28;20076;-75
2022/09/20 00:44:02;;;;;;;10.20;2.20;;;;;;;-145.18;100.00;46654.53;5010899;28;20061;-75
2022/09/20 00:46:40;;;;;;;17.17;4.60;;;;;;;-145.18;100.00;46652.59;5010644;28;20378;-75
2022/09/20 00:49:26;;;;;;;11.30;2.90;;;;;;;-145.18;100.00;46652.59;5010776;28;20030;-74
2022/09/20 00:51:56;;;;;;;10.20;2.38;;;;;;;-145.18;100.00;46650.63;5010501;28;20026;-73
2022/09/20 00:54:24;;;;;;;6.60;2.27;;;;;;;-145.18;100.00;46654.53;5011396;28;20125;-73
2022/09/20 00:56:50;;;;;;;8.43;2.27;;;;;;;-145.18;100.00;46654.53;5010583;28;20040;-72
2022/09/20 00:59:35;;;;;;;8.43;2.23;;;;;;;-145.18;100.00;46650.63;5010976;28;20113;-73
2022/09/20 01:02:24;;;;;;;11.67;2.30;;;;;;;-145.18;100.00;46652.59;5009918;28;20092;-73
2022/09/20 01:04:50;;;;;;;5.67;2.30;;;;;;;-145.18;100.00;46652.59;5010829;28;20037;-73
2022/09/20 01:07:21;;;;;;;5.70;2.07;;;;;;;-145.18;100.00;46652.59;5010430;28;20080;-74
2022/09/20 01:09:46;;;;;;;7.27;2.10;;;;;;;-145.18;100.00;46650.63;5010795;28;20482;-73
2022/09/20 01:12:17;;;;;;;11.93;3.27;;;;;;;-145.18;100.00;46652.59;5010474;28;20040;-73
2022/09/20 01:14:44;;;;;;;6.83;1.93;;;;;;;-145.18;100.00;46648.69;5011011;28;20026;-73
2022/09/20 01:17:11;;;;;;;6.60;1.70;;;;;;;-145.18;100.00;46652.59;5010611;28;20025;-74
2022/09/20 01:20:02;;;;;;;11.80;1.80;;;;;;;-145.18;100.00;46652.59;5011232;28;20025;-74
2022/09/20 01:22:46;;;;;;;9.30;1.60;;;;;;;-145.18;100.00;46648.69;4993670;28;20498;-74
2022/09/20 01:25:49;;;;;;;11.63;2.00;;;;;;;-145.18;100.00;46654.53;4991030;28;20410;-75
2022/09/20 01:28:15;;;;;;;5.50;1.70;;;;;;;-145.18;100.00;46644.78;4990904;28;20507;-75
2022/09/20 01:31:27;;;;;;;6.63;2.20;;;;;;;-145.18;100.00;46652.59;4991178;28;20034;-76
2022/09/20 01:34:10;;;;;;;7.80;1.83;;;;;;;-145.18;100.00;46650.63;4933409;29;20497;-76
2022/09/20 01:36:59;;;;;;;7.37;2.10;;;;;;;-145.18;100.00;46656.50;4988571;28;20069;-76
2022/09/20 01:39:38;;;;;;;7.13;1.63;;;;;;;-145.18;100.00;46652.59;4979978;28;20041;-76
2022/09/20 01:42:06;;;;;;;8.03;1.63;;;;;;;-145.18;100.00;46648.69;4994636;28;20089;-75
2022/09/20 01:44:45;;;;;;;8.17;1.90;;;;;;;-145.18;100.00;46650.63;4994666;28;20085;-75
2022/09/20 01:47:32;;;;;;;5.53;1.60;;;;;;;-145.18;100.00;46650.63;4994305;28;20054;-75
2022/09/20 01:50:28;;;;;;;5.30;1.60;;;;;;;-145.18;100.00;46648.69;4994689;28;20129;-75
2022/09/20 01:53:28;;;;;;;7.68;1.98;;;;;;;-145.18;100.00;46652.59;4994155;28;20080;-75
2022/09/20 01:56:37;;;;;;;12.57;2.00;;;;;;;-145.18;100.00;46650.63;4951074;28;20035;-75
2022/09/20 01:59:20;;;;;;;7.40;1.90;;;;;;;-145.18;100.00;46654.53;4994490;28;20031;-75
2022/09/20 02:01:51;;;;;;;14.83;2.53;;;;;;;-145.18;100.00;46644.78;5050845;23;20116;-84
2022/09/20 02:04:46;;;;;;;7.17;1.90;;;;;;;-145.18;100.00;46650.63;4978135;28;20053;-75
2022/09/20 02:07:17;;;;;;;9.03;1.83;;;;;;;-145.18;100.00;46646.72;4969853;28;20037;-75
2022/09/20 02:09:52;;;;;;;8.60;2.03;;;;;;;-145.18;100.00;46648.69;4976582;28;20068;-75
2022/09/20 02:12:39;;;;;;;7.30;1.67;;;;;;;-145.18;100.00;46648.69;4976213;28;20069;-75
2022/09/20 02:15:30;;;;;;;13.53;4.33;;;;;;;-145.18;100.00;46648.69;4994184;28;20026;-75
2022/09/20 02:18:02;;;;;;;9.13;2.63;;;;;;;-145.18;100.00;46650.63;4993759;28;20089;-75
2022/09/20 02:21:02;;;;;;;3.70;1.50;;;;;;;-145.18;100.00;46646.72;4994276;28;20440;-75
2022/09/20 02:23:27;;;;;;;3.87;1.83;;;;;;;-145.18;100.00;46656.50;4979699;28;20049;-75
2022/09/20 02:26:17;;;;;;;5.83;1.90;;;;;;;-145.18;100.00;46648.69;4993782;28;20034;-75
2022/09/20 02:29:09;;;;;;;8.63;1.63;;;;;;;-145.18;100.00;46656.50;4993077;28;20022;-75
2022/09/20 02:32:06;;;;;;;7.77;1.87;;;;;;;-145.18;100.00;46650.63;4993604;28;20041;-75
2022/09/20 02:35:00;;;;;;;6.73;2.47;;;;;;;-145.18;100.00;46648.69;4993696;28;20034;-74
2022/09/20 02:37:59;;;;;;;6.03;2.37;;;;;;;-145.18;100.00;46646.72;4993270;28;20113;-75
2022/09/20 02:40:25;;;;;;;6.93;2.00;;;;;;;-145.18;100.00;46646.72;4993513;28;20109;-75
2022/09/20 02:43:21;;;;;;;10.93;2.03;;;;;;;-145.18;100.00;46652.59;4993037;28;20201;-75
2022/09/20 02:45:58;;;;;;;7.57;1.88;;;;;;;-145.18;100.00;46646.72;4993064;28;20403;-74
2022/09/20 02:48:35;;;;;;;6.93;2.30;;;;;;;-145.18;100.00;46648.69;4993012;28;20073;-75
2022/09/20 02:51:23;;;;;;;5.87;2.13;;;;;;;-145.18;100.00;46644.78;4993298;28;20578;-75
2022/09/20 02:54:07;;;;;;;7.17;2.30;;;;;;;-145.18;100.00;46646.72;4992776;28;20058;-74
2022/09/20 02:56:37;;;;;;;10.93;2.77;;;;;;;-145.18;100.00;46648.69;5004882;28;20030;-75
2022/09/20 02:59:23;;;;;;;9.47;2.60;;;;;;;-145.18;100.00;46648.69;5012432;28;20026;-75
2022/09/20 03:02:12;;;;;;;10.52;2.78;;;;;;;-145.18;100.00;46644.78;5012531;28;20034;-74
2022/09/20 03:04:55;;;;;;;9.97;1.83;;;;;;;-145.18;100.00;46644.78;4993223;28;20569;-74
2022/09/20 03:07:45;;;;;;;7.17;1.83;;;;;;;-145.18;100.00;46650.63;4992998;28;20057;-75
2022/09/20 03:10:24;;;;;;;14.00;3.27;;;;;;;-145.18;100.00;46646.72;4992878;28;20034;-74
2022/09/20 03:13:14;;;;;;;11.90;4.23;;;;;;;-145.18;100.00;46644.78;4992697;28;20038;-74
2022/09/20 03:16:01;;;;;;;8.60;2.90;;;;;;;-145.18;100.00;46646.72;4992886;28;20117;-74
2022/09/20 03:18:41;;;;;;;9.97;1.70;;;;;;;-145.18;100.00;46646.72;4992375;28;20030;-75
2022/09/20 03:21:28;;;;;;;11.90;2.10;;;;;;;-145.18;100.00;46646.72;4992868;28;20038;-75
2022/09/20 03:24:01;;;;;;;14.13;3.33;;;;;;;-145.18;100.00;46642.81;4992467;28;20067;-74
2022/09/20 03:26:39;;;;;;;8.23;1.80;;;;;;;-145.18;100.00;46644.78;4992855;28;20038;-75
2022/09/20 03:29:36;;;;;;;9.00;1.60;;;;;;;-145.18;100.00;46650.63;4992400;28;20145;-75
2022/09/20 03:32:22;;;;;;;5.10;1.73;;;;;;;-145.18;100.00;46648.69;4992516;28;20036;-75
2022/09/20 03:34:48;;;;;;;;;;;;;;;-145.18;100.00;46646.72;4992812;28;20088;-75
2022/09/20 03:37:48;;;;;;;7.95;1.60;;;;;;;-145.18;100.00;46652.59;4992424;28;20008;-75
2022/09/20 03:40:35;;;;;;;5.13;1.90;;;;;;;-145.18;100.00;46642.81;4967131;28;20038;-75
2022/09/20 03:43:35;;;;;;;11.03;2.60;;;;;;;-145.18;100.00;46652.59;4992223;28;20029;-74
2022/09/20 03:46:26;;;;;;;9.70;2.20;;;;;;;-145.18;100.00;46644.78;4992005;28;20066;-74
2022/09/20 03:49:22;;;;;;;11.37;2.80;;;;;;;-145.18;100.00;46648.69;4991604;28;20026;-75
2022/09/20 03:52:35;;;;;;;7.20;2.63;;;;;;;-145.18;100.00;46646.72;4991959;28;20395;-75
2022/09/20 03:55:25;;;;;;;11.73;3.27;;;;;;;-145.18;100.00;46652.59;4991890;28;20030;-75
2022/09/20 03:58:04;;;;;;;8.17;1.87;;;;;;;-145.18;100.00;46648.69;4991454;28;20113;-75
2022/09/20 04:00:45;;;;;;;8.17;1.60;;;;;;;-145.18;100.00;46648.69;4975670;28;20031;-75
2022/09/20 04:03:39;;;;;;;10.97;2.30;;;;;;;-145.18;100.00;46642.81;4975074;28;20105;-75
2022/09/20 04:06:23;;;;;;;7.90;1.90;;;;;;;-145.18;100.00;46646.72;4991186;28;20026;-74
2022/09/20 04:09:34;;;;;;;8.03;1.40;;;;;;;-145.18;100.00;46648.69;4993380;28;20034;-74
2022/09/20 04:12:19;;;;;;;5.83;1.43;;;;;;;-145.18;100.00;46648.69;4967933;28;20062;-74
2022/09/20 04:15:31;;;;;;;9.60;2.10;;;;;;;-145.18;100.00;46644.78;4990437;28;20031;-74
2022/09/20 04:18:08;;;;;;;8.00;2.00;;;;;;;-145.18;100.00;46646.72;4980368;28;20438;-75
2022/09/20 04:20:49;;;;;;;3.90;1.00;;;;;;;-145.18;100.00;46646.72;4989067;28;20027;-75
2022/09/20 04:23:46;;;;;;;6.00;1.70;;;;;;;-145.18;100.00;46652.59;5008518;28;20104;-75
2022/09/20 04:26:14;;;;;;;5.00;1.30;;;;;;;-145.18;100.00;46650.63;5010915;28;20025;-75
2022/09/20 04:28:47;;;;;;;6.33;2.70;;;;;;;-145.18;100.00;46646.72;4996060;28;20046;-75
2022/09/20 04:31:40;;;;;;;6.60;2.00;;;;;;;-145.18;100.00;46646.72;5000439;28;20054;-75
2022/09/20 04:34:12;;;;;;;8.10;1.70;;;;;;;-145.18;100.00;46654.53;4990556;28;20778;-75
2022/09/20 04:36:57;;;;;;;6.93;1.83;;;;;;;-145.18;100.00;46650.63;4990786;28;20109;-75
2022/09/20 04:39:44;;;;;;;7.67;1.93;;;;;;;-145.18;100.00;46648.69;4989051;28;20027;-75
2022/09/20 04:42:30;;;;;;;7.13;1.93;;;;;;;-145.18;100.00;46650.63;4991594;28;20034;-75
2022/09/20 04:45:16;;;;;;;;;;;;;;;-145.18;100.00;46644.78;4995927;28;20505;-75
2022/09/20 04:48:03;;;;;;;8.20;1.43;;;;;;;-145.18;100.00;46650.63;5010370;28;19913;-74
2022/09/20 04:50:38;;;;;;;10.77;2.90;;;;;;;-145.18;100.00;46648.69;5010850;28;20042;-74
2022/09/20 04:53:51;;;;;;;11.57;2.30;;;;;;;-145.18;100.00;46650.63;5010739;28;20033;-75
2022/09/20 04:56:35;;;;;;;5.97;2.20;;;;;;;-145.18;100.00;46650.63;4950853;28;20046;-74
2022/09/20 04:59:09;;;;;;;6.70;2.03;;;;;;;-145.18;100.00;46652.59;5009232;28;20104;-75
2022/09/20 05:02:12;;;;;;;7.57;2.60;;;;;;;-145.18;100.00;46646.72;5010732;28;20029;-75
2022/09/20 05:05:14;;;;;;;7.43;2.40;;;;;;;-145.18;100.00;46646.72;5010526;28;20117;-75
2022/09/20 05:08:00;;;;;;;8.47;3.30;;;;;;;-145.18;100.00;46648.69;5010841;28;20577;-75
2022/09/20 05:10:34;;;;;;;11.93;3.37;;;;;;;-145.18;100.00;46654.53;5014964;28;20071;-75
2022/09/20 05:13:20;;;;;;;12.17;4.13;;;;;;;-145.18;100.00;46644.78;5014293;28;20049;-74
2022/09/20 05:16:01;;;;;;;8.67;3.17;;;;;;;-145.18;100.00;46644.78;4989982;28;20487;-75
2022/09/20 05:19:06;;;;;;;6.60;2.97;;;;;;;-145.18;100.00;46642.81;4985440;28;20442;-75
2022/09/20 05:22:09;;;;;;;8.47;2.80;;;;;;;-145.18;100.00;46646.72;4974233;28;20039;-75
2022/09/20 05:24:48;;;;;;;7.50;2.97;;;;;;;-145.18;100.00;46648.69;4975054;28;20043;-75
2022/09/20 05:27:36;;;;;;;15.47;3.00;;;;;;;-145.18;100.00;46642.81;4975332;28;20038;-75
2022/09/20 05:30:10;;;;;;;4.53;1.90;;;;;;;-145.18;100.00;46640.88;4975411;28;20165;-75
2022/09/20 05:32:54;;;;;;;7.53;1.87;;;;;;;-145.18;100.00;46644.78;4974679;28;20034;-74
2022/09/20 05:35:33;;;;;;;11.00;1.77;;;;;;;-145.18;100.00;46646.72;4987358;28;20041;-75
2022/09/20 05:38:20;;;;;;;7.97;2.00;;;;;;;-145.18;100.00;46650.63;4986537;28;20019;-75
2022/09/20 05:41:03;;;;;;;6.60;2.40;;;;;;;-145.18;100.00;46644.78;4994853;28;20033;-74
2022/09/20 05:43:36;;;;;;;12.10;2.10;;;;;;;-145.18;100.00;46646.72;4994234;28;20372;-74
2022/09/20 05:46:13;;;;;;;9.23;1.90;;;;;;;-145.18;100.00;46648.69;4994238;28;20049;-75
2022/09/20 05:48:52;;;;;;;8.83;2.10;;;;;;;-145.18;100.00;46648.69;4989818;28;20037;-75
2022/09/20 05:51:41;;;;;;;7.07;2.13;;;;;;;-145.18;100.00;46648.69;4975272;28;20062;-75
2022/09/20 05:54:32;;;;;;;11.17;2.73;;;;;;;-145.18;100.00;46650.63;4975551;28;20042;-75
2022/09/20 05:57:27;;;;;;;8.13;1.87;;;;;;;-145.18;100.00;46652.59;4985761;28;20040;-75
2022/09/20 06:00:14;;;;;;;6.47;1.63;;;;;;;-145.18;100.00;46646.72;4994225;28;20038;-75
2022/09/20 06:02:53;;;;;;;6.57;1.83;;;;;;;-145.18;100.00;46650.63;4993691;28;20050;-75
2022/09/20 06:05:18;;;;;;;11.27;2.90;;;;;;;-145.18;100.00;46642.81;4994268;28;20478;-75
2022/09/20 06:07:46;;;;;;;11.80;2.83;;;;;;;-145.18;100.00;46650.63;4993745;28;20065;-75
2022/09/20 06:10:12;;;;;;;5.37;2.17;;;;;;;-145.18;100.00;46648.69;4994168;28;20030;-75
2022/09/20 06:12:57;;;;;;;6.37;2.03;;;;;;;-145.18;100.00;46652.59;4993839;28;20034;-75
2022/09/20 06:16:03;;;;;;;9.50;1.67;;;;;;;-145.18;100.00;46648.69;4993849;28;20027;-75
2022/09/20 06:18:44;;;;;;;8.30;2.37;;;;;;;-145.18;100.00;46646.72;4993058;28;20582;-74
2022/09/20 06:21:30;;;;;;;8.30;2.20;;;;;;;-145.18;100.00;46648.69;4994017;28;20402;-75
2022/09/20 06:23:59;;;;;;;8.73;2.08;;;;;;;-145.18;100.00;46644.78;4993402;28;20498;-75
2022/09/20 06:26:28;;;;;;;14.80;3.20;;;;;;;-145.18;100.00;46646.72;4993804;28;20488;-75
2022/09/20 06:29:04;;;;;;;8.00;2.57;;;;;;;-145.18;100.00;46650.63;4993290;28;20066;-75
2022/09/20 06:31:29;;;;;;;;;;;;;;;-145.18;100.00;46648.69;4994208;28;20460;-75
2022/09/20 06:34:08;;;;;;;8.30;2.43;;;;;;;-145.18;100.00;46644.78;4993311;28;20037;-75
2022/09/20 06:42:09;;;;;;;9.57;1.90;;;;;;;-145.18;100.00;46642.81;4993665;28;20041;-75
2022/09/20 06:44:40;;;;;;;11.37;2.07;;;;;;;-145.18;100.00;46646.72;4993056;28;20034;-75
2022/09/20 06:47:08;;;;;;;10.33;2.03;;;;;;;-145.18;100.00;46646.72;4993218;28;20530;-75
2022/09/20 06:49:34;;;;;;;10.87;1.90;;;;;;;-145.18;100.00;46644.78;4992859;28;20553;-75
2022/09/20 06:52:03;;;;;;;5.60;1.73;;;;;;;-145.18;100.00;46652.59;4993530;28;20034;-75
2022/09/20 06:54:28;;;;;;;5.80;2.00;;;;;;;-145.18;100.00;46648.69;4976272;28;20026;-75
2022/09/20 06:56:54;;;;;;;7.53;2.13;;;;;;;-145.18;100.00;46650.63;4993143;28;20084;-75
2022/09/20 06:59:19;;;;;;;5.53;1.73;;;;;;;-145.18;100.00;46654.53;4993162;28;20157;-75
2022/09/20 07:01:45;;;;;;;8.23;1.77;;;;;;;-145.18;100.00;46652.59;4992930;28;20066;-75
2022/09/20 07:04:10;;;;;;;5.87;1.43;;;;;;;-145.18;100.00;46654.53;4992792;28;20046;-75
2022/09/20 07:06:36;;;;;;;8.87;2.90;;;;;;;-145.18;100.00;46660.41;4993148;28;20030;-75
2022/09/20 07:09:03;;;;;;;8.00;1.90;;;;;;;-145.18;100.00;46654.53;4992289;28;20181;-75
2022/09/20 07:11:28;;;;;;;6.07;1.70;;;;;;;-145.18;100.00;46658.44;4975466;28;20057;-75
2022/09/20 07:13:57;;;;;;;7.30;1.87;;;;;;;-145.18;100.00;46656.50;4992736;28;20471;-75
2022/09/20 07:16:22;;;;;;;11.67;1.90;;;;;;;-145.18;100.00;46654.53;4992980;28;20524;-75
2022/09/20 07:18:48;;;;;;;8.03;1.70;;;;;;;-145.18;100.00;46652.59;4974600;28;20039;-75
2022/09/20 07:21:15;;;;;;;8.97;1.70;;;;;;;-145.18;100.00;46664.31;4992527;28;20061;-75
2022/09/20 07:23:41;;;;;;;9.07;1.60;;;;;;;-145.18;100.00;46658.44;4992559;28;20038;-75
2022/09/20 07:26:16;;;;;;;5.00;1.20;;;;;;;-145.18;100.00;46662.34;4992494;28;20042;-75
2022/09/20 07:28:42;;;;;;;7.72;2.38;;;;;;;-145.18;100.00;46664.31;4992463;28;20026;-75
2022/09/20 07:31:07;;;;;;;6.03;1.13;;;;;;;-145.18;100.00;46672.13;4991368;28;20455;-75
2022/09/20 07:33:32;;;;;;;5.77;1.27;;;;;;;-145.18;100.00;46670.16;4975028;28;20086;-75
2022/09/20 07:35:58;;;;;;;9.70;1.30;;;;;;;-145.18;100.00;46670.16;4992303;28;20033;-75
2022/09/20 07:38:23;;;;;;;9.87;2.20;;;;;;;-145.18;100.00;46674.06;4958780;28;20026;-75
2022/09/20 07:41:01;;;;;;;10.27;2.17;;;;;;;-145.18;100.00;46676.03;4974733;28;20109;-75
2022/09/20 07:43:27;;;;;;;7.27;1.20;;;;;;;-145.18;100.00;46676.03;4992118;28;20688;-75
2022/09/20 07:45:54;;;;;;;5.57;1.60;;;;;;;-145.18;100.00;46676.03;4991957;28;20031;-76
2022/09/20 07:48:39;;;;;;;12.07;1.53;;;;;;;-145.18;100.00;46681.88;4991990;28;20494;-75
2022/09/20 07:51:08;;;;;;;8.57;1.20;;;;;;;-145.18;100.00;46681.88;4992356;28;20030;-75
2022/09/20 07:53:33;;;;;;;7.97;1.43;;;;;;;-145.18;100.00;46685.78;4991894;28;20053;-75
2022/09/20 07:56:04;;;;;;;7.17;1.37;;;;;;;-145.18;100.00;46683.84;4974544;28;20492;-75
2022/09/20 07:58:32;;;;;;;4.83;1.23;;;;;;;-145.18;100.00;46685.78;4991856;28;20096;-75
2022/09/20 08:01:00;;;;;;;6.83;1.10;;;;;;;-145.18;100.00;46687.75;4992105;28;20080;-76
2022/09/20 08:03:27;;;;;;;7.43;1.07;;;;;;;-145.18;100.00;46685.78;4991342;28;20188;-75
2022/09/20 08:06:01;;;;;;;7.63;1.30;;;;;;;-145.18;100.00;46679.94;4991660;28;20467;-75
2022/09/20 08:08:28;;;;;;;7.50;1.10;;;;;;;-145.18;100.00;46676.03;4974614;28;20061;-75
2022/09/20 08:11:01;;;;;;;6.77;1.47;;;;;;;-145.18;100.00;46595.94;4991632;28;20034;-75
2022/09/20 08:13:28;;;;;;;11.67;1.20;;;;;;;-145.18;100.00;46564.69;4991617;28;20486;-75
2022/09/20 08:16:01;;;;;;;10.70;1.17;;;;;;;-145.18;100.00;46566.63;4974242;28;20038;-76
2022/09/20 08:18:26;;;;;;;12.20;1.20;;;;;;;-145.18;100.00;46566.63;4991343;28;20034;-75
2022/09/20 08:20:52;;;;;;;5.17;1.40;;;;;;;-145.18;100.00;46568.59;4991564;28;20088;-75
2022/09/20 08:23:17;;;;;;;5.47;1.20;;;;;;;-145.18;100.00;46564.69;4991452;28;20037;-75
2022/09/20 08:25:42;;;;;;;9.27;1.10;;;;;;;-145.18;100.00;46586.16;4991491;28;20042;-75
2022/09/20 08:28:08;;;;;;;10.53;1.43;;;;;;;-145.18;100.00;46595.94;4991085;28;20038;-76
2022/09/20 08:30:33;;;;;;;10.13;1.20;;;;;;;-145.18;100.00;46607.66;4991646;28;20050;-75
2022/09/20 08:32:58;;;;;;;5.67;1.10;;;;;;;-145.18;100.00;46611.56;4973800;28;20040;-75
2022/09/20 08:35:25;;;;;;;9.43;1.20;;;;;;;-145.18;100.00;46607.66;4973880;28;20036;-75
2022/09/20 08:37:54;;;;;;;7.97;1.63;;;;;;;-145.18;100.00;46629.13;4973606;28;20117;-75
2022/09/20 08:40:22;;;;;;;6.30;0.90;;;;;;;-145.18;100.00;46621.31;4991169;28;20049;-75
2022/09/20 08:42:48;;;;;;;11.53;1.00;;;;;;;-145.18;100.00;46660.41;4990875;28;20042;-75
2022/09/20 08:45:18;;;;;;;4.57;0.90;;;;;;;-145.18;100.00;46666.25;4990913;28;20518;-75
2022/09/20 08:48:08;;;;;;;5.37;1.00;;;;;;;-145.18;100.00;46660.41;4973943;28;20403;-75
2022/09/20 08:50:36;;;;;;;8.90;0.93;;;;;;;-145.18;100.00;46656.50;4991102;28;20455;-74
2022/09/20 08:53:05;;;;;;;4.40;0.83;;;;;;;-145.18;100.00;46644.78;4990936;28;20030;-76
2022/09/20 08:55:31;;;;;;;9.33;1.17;;;;;;;-145.18;100.00;46640.88;4991223;28;20073;-75
2022/09/20 08:57:58;;;;;;;10.20;0.90;;;;;;;-145.18;100.00;46644.78;4990900;28;20030;-74
2022/09/20 09:00:32;;;;;;;6.37;0.90;;;;;;;-145.18;100.00;46627.19;4991051;28;20088;-74
2022/09/20 09:03:03;;;;;;;6.47;1.50;;;;;;;-145.18;100.00;46633.06;4990334;28;20104;-74
2022/09/20 09:05:50;;;;;;;8.20;1.47;;;;;;;-145.18;100.00;46664.31;4991088;28;20030;-74
2022/09/20 09:08:20;;;;;;;4.77;0.83;;;;;;;-145.18;100.00;46664.31;4990559;28;20034;-75
2022/09/20 09:11:15;;;;;;;4.50;0.97;;;;;;;-145.18;100.00;46648.69;4990949;28;20471;-75
2022/09/20 09:14:46;;;;;;;5.83;1.73;;;;;;;-145.18;100.00;46707.28;4990853;28;20035;-74
2022/09/20 09:16:52;;;;;;;9.17;1.30;;;;;;;-145.18;100.00;46685.78;4990626;28;20030;-74
2022/09/20 09:19:51;;;;;;;5.97;0.90;;;;;;;-145.18;100.00;46660.41;4990606;28;20390;-74
2022/09/20 09:22:31;;;;;;;6.07;0.80;;;;;;;-145.18;100.00;46687.75;4986122;28;20034;-74
2022/09/20 09:25:33;;;;;;;7.93;1.03;;;;;;;-145.18;100.00;46730.72;4990117;28;20503;-74
2022/09/20 09:28:22;;;;;;;10.07;1.10;;;;;;;-145.18;100.00;46769.78;4949509;28;20076;-74
2022/09/20 09:30:48;;;;;;;7.60;2.40;;;;;;;-145.18;100.00;46793.22;4990933;28;20033;-74
2022/09/20 09:33:13;;;;;;;6.57;1.80;;;;;;;-145.18;100.00;46754.16;4990435;28;20026;-74
2022/09/20 09:35:39;;;;;;;11.90;3.07;;;;;;;-145.18;100.00;46787.38;4991163;28;20034;-73
2022/09/20 09:38:04;;;;;;;8.93;2.77;;;;;;;-145.18;100.00;46803.00;4990363;28;20026;-74
2022/09/20 09:40:31;;;;;;;5.13;1.00;;;;;;;-145.18;100.00;46853.78;4990663;28;20421;-73
2022/09/20 09:43:00;;;;;;;5.33;1.63;;;;;;;-145.18;100.00;46842.06;4990839;28;20391;-74
2022/09/20 09:45:30;;;;;;;6.30;0.90;;;;;;;-145.18;100.00;46896.75;4990592;28;20041;-74
2022/09/20 09:47:57;;;;;;;6.10;1.47;;;;;;;-145.18;100.00;47236.66;4990454;28;20443;-74
2022/09/20 09:50:27;;;;;;;10.20;1.60;;;;;;;-145.18;100.00;47389.06;4990445;28;20038;-73
2022/09/20 09:53:01;;;;;;;7.70;1.40;;;;;;;-145.18;100.00;47144.84;4990453;28;20034;-73
2022/09/20 09:55:43;;;;;;;7.10;1.10;;;;;;;-145.18;100.00;47035.44;4993907;28;20117;-73
2022/09/20 09:58:38;;;;;;;4.07;1.30;;;;;;;-145.18;100.00;47391.00;4993786;28;20039;-73
2022/09/20 10:01:09;;;;;;;9.03;2.00;;;;;;;-145.18;100.00;47377.34;4994337;28;20035;-73
2022/09/20 10:04:20;;;;;;;9.83;1.27;;;;;;;-145.18;100.00;47375.38;4993562;28;20118;-73
2022/09/20 10:06:51;;;;;;;4.23;1.00;;;;;;;-145.18;100.00;47414.47;4915173;29;20036;-73
2022/09/20 10:09:49;;;;;;;8.47;1.27;;;;;;;-145.18;100.00;47400.78;4980162;28;20391;-73
2022/09/20 10:12:23;;;;;;;8.63;1.87;;;;;;;-145.18;100.00;47404.69;4925233;28;20043;-73
2022/09/20 10:15:25;;;;;;;7.87;1.47;;;;;;;-145.18;100.00;47340.22;4993812;28;20053;-73
2022/09/20 10:18:19;;;;;;;8.07;1.20;;;;;;;-145.18;100.00;47287.47;4993957;28;20022;-73
2022/09/20 10:21:27;;;;;;;3.30;1.03;;;;;;;-145.18;100.00;47324.59;4993806;28;20542;-73
2022/09/20 10:24:31;;;;;;;4.87;1.13;;;;;;;-145.18;100.00;47371.47;4963807;28;20041;-73
2022/09/20 10:27:25;;;;;;;5.73;1.07;;;;;;;-145.18;100.00;47363.66;4963466;28;20185;-73
2022/09/20 10:30:03;;;;;;;5.97;1.40;;;;;;;-145.18;100.00;47160.47;4975855;28;20045;-73
2022/09/20 10:32:38;;;;;;;8.73;1.30;;;;;;;-145.18;100.00;47033.50;4993823;28;20030;-73
2022/09/20 10:35:19;;;;;;;9.48;1.17;;;;;;;-145.18;100.00;46972.94;4993133;28;20045;-73
2022/09/20 10:37:57;;;;;;;5.37;1.20;;;;;;;-145.18;100.00;46826.44;4993585;28;20026;-73
2022/09/20 10:43:40;;;;;;;6.30;1.00;;;;;;;-145.18;100.00;46754.16;4993770;28;20068;-73
2022/09/20 10:46:35;;;;;;;5.70;0.90;;;;;;;-145.18;100.00;46748.28;4993649;28;20065;-73
2022/09/20 10:49:22;;;;;;;11.23;1.00;;;;;;;-145.18;100.00;46752.19;4992849;28;20553;-73
2022/09/20 10:52:14;;;;;;;5.37;1.57;;;;;;;-145.18;100.00;46742.44;4993393;28;20121;-73
2022/09/20 10:54:47;;;;;;;12.60;1.57;;;;;;;-145.18;100.00;46750.25;4993021;28;20037;-73
2022/09/20 10:57:36;;;;;;;6.97;1.30;;;;;;;-145.18;100.00;46744.38;4992938;28;20026;-73
2022/09/20 11:00:07;;;;;;;6.00;1.07;;;;;;;-145.18;100.00;46748.28;4992773;28;20027;-73
2022/09/20 11:03:00;;;;;;;5.93;1.03;;;;;;;-145.18;100.00;46746.34;4992916;28;20132;-73
2022/09/20 11:05:31;;;;;;;6.17;1.17;;;;;;;-145.18;100.00;46742.44;4992511;28;20080;-73
2022/09/20 11:08:09;;;;;;;6.53;1.67;;;;;;;-145.18;100.00;46713.13;4993135;28;20018;-73
2022/09/20 11:10:53;;;;;;;5.03;1.37;;;;;;;-145.18;100.00;46677.97;4992744;28;20034;-73
2022/09/20 11:13:34;;;;;;;4.73;0.73;;;;;;;-145.18;100.00;46676.03;4992941;28;20054;-73
2022/09/20 11:16:07;;;;;;;7.53;1.20;;;;;;;-145.18;100.00;46662.34;4992840;28;20026;-73
2022/09/20 11:18:40;;;;;;;8.80;2.20;;;;;;;-145.18;100.00;46652.59;4992407;28;20034;-73
2022/09/20 11:21:33;;;;;;;7.37;1.20;;;;;;;-145.18;100.00;46756.09;4992672;28;20037;-73
2022/09/20 11:24:12;;;;;;;3.90;0.90;;;;;;;-145.18;100.00;46785.41;4992299;28;20034;-73
2022/09/20 11:26:43;;;;;;;6.60;2.03;;;;;;;-145.18;100.00;46730.72;4992638;28;20041;-72
2022/09/20 11:29:41;;;;;;;6.37;0.90;;;;;;;-145.18;100.00;46914.34;4992178;28;20046;-73
2022/09/20 11:32:29;;;;;;;6.03;1.10;;;;;;;-145.18;100.00;47383.19;4992337;28;20084;-73
2022/09/20 11:35:24;;;;;;;4.40;1.03;;;;;;;-145.18;100.00;47402.72;4991988;28;20038;-72
2022/09/20 11:38:10;;;;;;;4.40;1.10;;;;;;;-145.18;100.00;47408.59;4982158;28;20622;-72
2022/09/20 11:40:45;;;;;;;16.30;1.80;;;;;;;-145.18;100.00;47447.66;4992083;28;20057;-72
2022/09/20 11:43:13;;;;;;;;;;;;;;;-145.18;100.00;47410.56;4992629;28;20314;-72
2022/09/20 11:45:41;;;;;;;9.00;2.27;;;;;;;-145.18;100.00;47185.88;4992008;28;19922;-73
2022/09/20 11:48:24;;;;;;;7.07;2.30;;;;;;;-145.18;100.00;46908.47;4992166;28;20114;-73
2022/09/20 11:51:22;;;;;;;5.93;1.17;;;;;;;-145.18;100.00;47230.81;4992079;28;20034;-72
2022/09/20 11:54:26;;;;;;;2.73;1.00;;;;;;;-145.18;100.00;46992.47;4948297;28;20509;-72
2022/09/20 11:56:57;;;;;;;2.67;0.90;;;;;;;-145.18;100.00;47201.50;4992156;28;20045;-72
2022/09/20 11:59:40;;;;;;;6.63;1.53;;;;;;;-145.18;100.00;47351.94;4991952;28;20475;-72
2022/09/20 12:02:20;;;;;;;10.60;1.80;;;;;;;-145.18;100.00;47355.84;4991873;28;20034;-72
2022/09/20 12:04:48;;;;;;;5.60;1.17;;;;;;;-145.18;100.00;47246.44;4991613;28;20041;-72
2022/09/20 12:07:22;;;;;;;3.50;1.07;;;;;;;-145.18;100.00;47201.50;4991751;28;20534;-72
2022/09/20 12:10:03;;;;;;;4.50;0.90;;;;;;;-145.18;100.00;47174.16;4991754;28;20035;-72
2022/09/20 12:12:40;;;;;;;3.40;1.00;;;;;;;-145.18;100.00;47140.94;4992017;28;20039;-72
2022/09/20 12:15:22;;;;;;;4.83;0.90;;;;;;;-145.18;100.00;47111.66;4991359;28;20041;-72